TAF and METAR

METAR for Tébessa Airport

DABS 011700Z 16004KT 9999 FEW030CB SCT033 BKN200 19/M03 Q1011
Report created 1. apr 19:00
wind 4 knots from SSE (160°) visibility > 10km some clouds (~25% cover) at 3000 feet of type cumulonimbus scattered clouds (~50% cover) at 3300 feet broken clouds (~75% cover) at 20000 feet Temperature 19° with dewpoint at -3° (Humidity 22.34%) Pressure 1011 hPa

TAF for Tébessa Airport

TAF DABS 011100Z 0112/0212 20012KT 9999 FEW040 SCT200 PROB40 TEMPO 0112/0120 FEW033TCU BECMG 0200/0202 35008KT
Report created 1. apr 13:00

between 1. apr 14:00 - 2. apr 14:00

wind 12 knots from SSW (200°) visibility > 10km some clouds (~25% cover) at 4000 feet scattered clouds (~50% cover) at 20000 feet

probably (~40%) temporarily between 1. apr 14:00 - 1. apr 22:00

some clouds (~25% cover) at 3300 feet of type towering cumulus

becoming between 2. apr 02:00 - 2. apr 04:00

wind 8 knots from N (350°)